Time;durP1;ratioP1;P1;durP2;ratioP2;P2;SDS_P1;SDS_P2;PMS_P1;PMS_P2;Temp;Humidity;BMP_temperature;BMP_pressure;BME280_temperature;BME280_humidity;BME280_pressure;Samples;Min_cycle;Max_cycle;Signal;HPM_P1;HPM_P2
2024/01/01 00:00:01;;;;;;;0.80;0.80;;;6.80;1.00;;;;;;5016594;28;20202;-54
2024/01/01 00:02:26;;;;;;;5.40;3.40;;;6.80;1.00;;;;;;5016815;28;20184;-55
2024/01/01 00:04:52;;;;;;;8.70;8.20;;;6.70;1.00;;;;;;5018571;28;20691;-56
2024/01/01 00:07:18;;;;;;;1.63;1.53;;;6.60;1.00;;;;;;5015758;28;20235;-54
2024/01/01 00:09:43;;;;;;;21.17;7.70;;;6.50;1.00;;;;;;5017029;28;20188;-55
2024/01/01 00:12:09;;;;;;;3.17;2.93;;;6.40;1.00;;;;;;5014758;28;20219;-55
2024/01/01 00:14:35;;;;;;;9.63;4.00;;;6.30;1.00;;;;;;5021885;28;20187;-55
2024/01/01 00:17:01;;;;;;;0.60;0.50;;;6.30;1.00;;;;;;5021452;28;20509;-55
2024/01/01 00:19:27;;;;;;;14.70;13.80;;;6.30;23.00;;;;;;5025612;28;20187;-55
2024/01/01 00:21:52;;;;;;;1.20;1.20;;;6.20;16.60;;;;;;5020646;28;20950;-55
2024/01/01 00:24:18;;;;;;;232.97;112.63;;;6.20;33.30;;;;;;5018824;28;20187;-54
2024/01/01 00:26:44;;;;;;;205.57;102.50;;;6.00;28.70;;;;;;5019967;28;20194;-54
2024/01/01 00:29:10;;;;;;;197.30;101.43;;;6.10;99.30;;;;;;5015202;28;20419;-54
2024/01/01 00:31:37;;;;;;;185.03;95.83;;;6.10;62.00;;;;;;5024175;28;20196;-54
2024/01/01 00:34:03;;;;;;;179.87;91.30;;;6.00;80.50;;;;;;5016795;28;20688;-54
2024/01/01 00:36:28;;;;;;;168.17;86.83;;;6.00;98.30;;;;;;5020515;28;20450;-53
2024/01/01 00:38:54;;;;;;;174.37;85.47;;;5.90;96.90;;;;;;5018362;28;20524;-53
2024/01/01 00:41:19;;;;;;;158.20;81.90;;;6.00;99.90;;;;;;5016383;28;20183;-53
2024/01/01 00:43:45;;;;;;;199.33;98.17;;;6.00;99.90;;;;;;5022189;28;20726;-54
2024/01/01 00:46:11;;;;;;;193.40;97.67;;;5.90;99.90;;;;;;5019128;28;20598;-54
2024/01/01 00:48:37;;;;;;;220.53;111.27;;;6.00;99.90;;;;;;5018511;28;20667;-54
2024/01/01 00:51:03;;;;;;;139.40;69.60;;;5.90;99.90;;;;;;5019911;28;20188;-54
2024/01/01 00:53:28;;;;;;;138.37;67.20;;;5.80;99.90;;;;;;5026438;28;20981;-55
2024/01/01 00:55:54;;;;;;;119.73;62.37;;;5.80;99.90;;;;;;5024140;28;20257;-53
2024/01/01 00:58:19;;;;;;;114.07;55.83;;;5.80;99.90;;;;;;5026559;28;20175;-54
2024/01/01 01:00:45;;;;;;;117.57;55.30;;;5.80;99.90;;;;;;5022688;28;20216;-54
2024/01/01 01:03:11;;;;;;;105.40;55.17;;;5.80;99.90;;;;;;5019021;28;20183;-55
2024/01/01 01:05:36;;;;;;;92.87;44.97;;;5.90;99.90;;;;;;5018632;28;20187;-55
2024/01/01 01:08:02;;;;;;;98.30;47.50;;;6.00;99.90;;;;;;5017518;28;20581;-55
2024/01/01 01:10:27;;;;;;;89.83;46.30;;;6.00;99.90;;;;;;5019139;28;20186;-54
2024/01/01 01:12:53;;;;;;;87.07;44.17;;;6.00;99.90;;;;;;5017998;28;20306;-54
2024/01/01 01:15:20;;;;;;;93.60;44.97;;;6.10;99.90;;;;;;5017100;28;20789;-54
2024/01/01 01:17:45;;;;;;;81.77;41.10;;;6.10;99.90;;;;;;5013640;28;20576;-54
2024/01/01 01:20:11;;;;;;;71.07;36.33;;;6.10;99.90;;;;;;5021154;28;20437;-54
2024/01/01 01:22:37;;;;;;;65.20;34.60;;;6.10;99.90;;;;;;5030067;28;20249;-54
2024/01/01 01:25:03;;;;;;;53.77;28.13;;;6.20;99.90;;;;;;5032814;28;20423;-54
2024/01/01 01:27:28;;;;;;;56.43;29.83;;;6.20;99.90;;;;;;5029380;28;20266;-54
2024/01/01 01:29:54;;;;;;;60.13;29.23;;;6.30;99.90;;;;;;5016976;28;20186;-54
2024/01/01 01:32:19;;;;;;;53.07;27.13;;;6.30;99.90;;;;;;5017136;28;20212;-54
2024/01/01 01:34:45;;;;;;;3.17;1.80;;;6.30;97.40;;;;;;5015127;28;20242;-55
2024/01/01 01:37:11;;;;;;;45.93;23.70;;;6.30;99.90;;;;;;5018048;28;20243;-54
2024/01/01 01:39:36;;;;;;;48.33;25.77;;;6.30;95.80;;;;;;5016560;28;20192;-54
2024/01/01 01:42:02;;;;;;;54.03;26.73;;;6.40;79.90;;;;;;5015452;28;20187;-54
2024/01/01 01:44:29;;;;;;;50.67;25.97;;;6.40;77.40;;;;;;5012456;28;20555;-54
2024/01/01 01:46:55;;;;;;;90.97;52.07;;;6.40;90.30;;;;;;5017562;28;20179;-54
2024/01/01 01:49:20;;;;;;;56.83;27.00;;;6.30;90.70;;;;;;5018853;28;20454;-54
2024/01/01 01:51:48;;;;;;;56.57;28.80;;;6.30;97.40;;;;;;5017071;28;20188;-54
2024/01/01 01:54:16;;;;;;;51.27;24.67;;;6.40;85.80;;;;;;5013225;28;20274;-56
2024/01/01 01:56:41;;;;;;;44.27;21.73;;;6.30;49.90;;;;;;5020609;28;20446;-54
2024/01/01 01:59:07;;;;;;;33.93;18.97;;;6.40;81.50;;;;;;5021506;28;20850;-55
2024/01/01 02:01:33;;;;;;;38.50;18.50;;;6.40;50.30;;;;;;5018858;28;20192;-54
2024/01/01 02:03:58;;;;;;;38.77;18.40;;;6.50;53.80;;;;;;5014076;28;20188;-54
2024/01/01 02:06:24;;;;;;;33.40;17.73;;;6.40;16.70;;;;;;5022856;28;20289;-54
2024/01/01 02:08:50;;;;;;;36.67;16.47;;;6.40;20.30;;;;;;5031524;28;20281;-54
2024/01/01 02:11:16;;;;;;;35.07;16.03;;;6.30;43.10;;;;;;5015567;28;20180;-54
2024/01/01 02:13:41;;;;;;;35.23;15.83;;;6.40;49.10;;;;;;5020693;28;20223;-54
2024/01/01 02:16:07;;;;;;;32.23;17.03;;;6.40;52.30;;;;;;5012962;28;20183;-54
2024/01/01 02:18:32;;;;;;;30.87;15.60;;;6.40;40.40;;;;;;5014927;28;20176;-54
2024/01/01 02:20:58;;;;;;;37.73;17.53;;;6.30;47.30;;;;;;5013195;28;20188;-55
2024/01/01 02:23:25;;;;;;;37.53;17.00;;;6.30;61.40;;;;;;5020474;28;20290;-54
2024/01/01 02:25:50;;;;;;;27.77;16.37;;;6.30;90.30;;;;;;5020271;28;20195;-54
2024/01/01 02:28:16;;;;;;;31.17;16.93;;;6.40;79.50;;;;;;5015325;28;20443;-53
2024/01/01 02:30:42;;;;;;;31.67;15.40;;;6.40;62.20;;;;;;5023632;28;20180;-54
2024/01/01 02:33:11;;;;;;;27.83;13.67;;;6.40;55.40;;;;;;5022855;28;20259;-54
2024/01/01 02:35:37;;;;;;;36.67;14.60;;;6.40;47.40;;;;;;5018895;28;20184;-54
2024/01/01 02:38:04;;;;;;;32.50;14.70;;;6.40;41.10;;;;;;5017461;28;20529;-54
2024/01/01 02:40:36;;;;;;;25.40;14.07;;;6.30;53.70;;;;;;5015049;28;20329;-54
2024/01/01 02:43:02;;;;;;;25.53;13.20;;;6.40;41.90;;;;;;5018498;28;20457;-54
2024/01/01 02:45:29;;;;;;;34.43;14.00;;;6.30;44.00;;;;;;5022601;28;20588;-54
2024/01/01 02:47:55;;;;;;;25.97;13.50;;;6.30;51.40;;;;;;5019946;28;21003;-54
2024/01/01 02:50:21;;;;;;;36.33;18.50;;;6.30;94.10;;;;;;5021650;28;20450;-54
2024/01/01 02:52:47;;;;;;;39.53;21.93;;;6.20;77.20;;;;;;5019752;28;20558;-54
2024/01/01 02:55:13;;;;;;;38.90;20.67;;;6.20;80.90;;;;;;5018873;28;20449;-54
2024/01/01 02:57:39;;;;;;;46.87;23.37;;;6.20;99.90;;;;;;5015514;28;20435;-54
2024/01/01 03:00:08;;;;;;;55.63;27.13;;;6.20;99.90;;;;;;5014431;28;20247;-54
2024/01/01 03:02:34;;;;;;;99.80;38.60;;;6.30;99.90;;;;;;5023132;28;20191;-55
2024/01/01 03:05:00;;;;;;;112.27;41.00;;;6.30;99.90;;;;;;5020662;28;20434;-55
2024/01/01 03:07:26;;;;;;;128.87;42.43;;;6.30;99.90;;;;;;5016578;28;20244;-55
2024/01/01 03:09:52;;;;;;;85.80;30.10;;;6.40;99.90;;;;;;5017498;28;20235;-55
2024/01/01 03:12:18;;;;;;;93.30;27.80;;;6.40;81.10;;;;;;5016967;28;20788;-55
2024/01/01 03:14:44;;;;;;;55.80;19.70;;;6.40;52.70;;;;;;5017161;28;20480;-55
2024/01/01 03:17:09;;;;;;;56.87;20.20;;;6.40;89.30;;;;;;5013319;28;20556;-55
2024/01/01 03:19:35;;;;;;;51.83;18.07;;;6.30;92.80;;;;;;5013919;28;20596;-55
2024/01/01 03:22:00;;;;;;;50.40;20.30;;;6.30;99.90;;;;;;5017415;28;20187;-55
2024/01/01 03:24:26;;;;;;;37.10;16.43;;;6.50;99.90;;;;;;5016964;28;20181;-55
2024/01/01 03:26:51;;;;;;;37.90;17.70;;;6.50;87.90;;;;;;5019693;28;20227;-55
2024/01/01 03:29:17;;;;;;;29.03;15.10;;;6.50;99.40;;;;;;5021087;28;20188;-55
2024/01/01 03:31:44;;;;;;;24.77;12.50;;;6.50;83.40;;;;;;5016638;28;20200;-55
2024/01/01 03:34:10;;;;;;;20.80;11.00;;;6.50;97.30;;;;;;5021684;28;20235;-55
2024/01/01 03:36:35;;;;;;;23.57;12.73;;;6.60;99.90;;;;;;5016449;28;20501;-55
2024/01/01 03:39:01;;;;;;;22.47;10.97;;;6.70;80.10;;;;;;5023407;28;20184;-55
2024/01/01 03:41:26;;;;;;;23.50;11.77;;;6.70;86.90;;;;;;5017043;28;20189;-55
2024/01/01 03:43:52;;;;;;;25.93;11.70;;;6.80;42.00;;;;;;5016983;28;20192;-55
2024/01/01 03:46:18;;;;;;;18.23;10.50;;;6.90;10.00;;;;;;5019956;28;20207;-54
2024/01/01 03:48:43;;;;;;;20.87;12.13;;;6.90;6.20;;;;;;5016538;28;20195;-55
2024/01/01 03:51:10;;;;;;;19.87;11.10;;;7.00;1.00;;;;;;5019926;28;20191;-55
2024/01/01 03:53:36;;;;;;;27.10;13.90;;;7.00;1.00;;;;;;5016777;28;20249;-55
2024/01/01 03:56:01;;;;;;;36.20;13.33;;;7.00;1.00;;;;;;5015488;28;20485;-55
2024/01/01 03:58:27;;;;;;;22.00;12.80;;;7.00;1.00;;;;;;5021169;28;20185;-55
2024/01/01 04:00:52;;;;;;;24.70;12.23;;;7.10;1.00;;;;;;5018573;28;20761;-55
2024/01/01 04:03:18;;;;;;;20.43;10.33;;;7.10;1.00;;;;;;5017364;28;20179;-55
2024/01/01 04:05:43;;;;;;;17.90;10.90;;;7.20;1.00;;;;;;5013812;28;20191;-55
2024/01/01 04:08:09;;;;;;;24.53;11.30;;;7.10;1.00;;;;;;5021026;28;20227;-55
2024/01/01 04:10:34;;;;;;;23.63;11.10;;;7.10;1.00;;;;;;5024725;28;20223;-55
2024/01/01 04:13:00;;;;;;;29.40;12.23;;;7.10;1.00;;;;;;5022874;28;20223;-55
2024/01/01 04:15:25;;;;;;;22.37;12.70;;;7.10;1.00;;;;;;5024648;28;20187;-55
2024/01/01 04:17:51;;;;;;;22.87;11.83;;;7.10;1.00;;;;;;5022841;28;20184;-55
2024/01/01 04:20:16;;;;;;;24.60;11.00;;;7.10;1.00;;;;;;5014627;28;20191;-55
2024/01/01 04:22:42;;;;;;;20.77;12.27;;;7.10;1.00;;;;;;5020668;28;20660;-55
2024/01/01 04:25:08;;;;;;;20.63;11.63;;;7.20;1.00;;;;;;5018206;28;20222;-55
2024/01/01 04:27:34;;;;;;;27.17;10.70;;;7.20;1.00;;;;;;5016768;28;20180;-55
2024/01/01 04:30:00;;;;;;;21.60;10.27;;;7.20;1.00;;;;;;5017165;28;20192;-55
2024/01/01 04:32:26;;;;;;;21.43;10.97;;;7.30;1.00;;;;;;5013208;28;20442;-55
2024/01/01 04:34:52;;;;;;;22.37;12.07;;;7.30;1.00;;;;;;5013837;28;20205;-55
2024/01/01 04:37:17;;;;;;;18.07;10.33;;;7.30;1.00;;;;;;5018531;28;20430;-55
2024/01/01 04:39:43;;;;;;;22.30;10.63;;;7.30;1.00;;;;;;5016616;28;20787;-56
2024/01/01 04:42:09;;;;;;;22.67;11.53;;;7.30;1.00;;;;;;5019251;28;20219;-55
2024/01/01 04:44:34;;;;;;;24.97;11.10;;;7.40;1.00;;;;;;5018551;28;20253;-55
2024/01/01 04:47:02;;;;;;;29.17;11.97;;;7.40;1.00;;;;;;5020043;28;20203;-55
2024/01/01 04:49:27;;;;;;;22.10;12.70;;;7.40;1.00;;;;;;5019249;28;20228;-55
2024/01/01 04:51:53;;;;;;;22.73;10.87;;;7.30;1.00;;;;;;5014443;28;20469;-55
2024/01/01 04:54:19;;;;;;;21.23;12.63;;;7.30;1.00;;;;;;5016730;28;20221;-55
2024/01/01 04:56:44;;;;;;;25.03;13.03;;;7.30;1.00;;;;;;5016132;28;20213;-55
2024/01/01 04:59:10;;;;;;;26.70;13.03;;;7.20;1.00;;;;;;5012722;28;20191;-55
2024/01/01 05:01:35;;;;;;;22.80;12.73;;;7.20;1.00;;;;;;5016399;28;20183;-55
2024/01/01 05:04:01;;;;;;;25.53;11.70;;;7.20;1.00;;;;;;5015911;28;20184;-55
2024/01/01 05:06:26;;;;;;;24.47;11.23;;;7.20;1.00;;;;;;5013465;28;20240;-55
2024/01/01 05:08:52;;;;;;;21.80;10.40;;;7.30;1.00;;;;;;5016549;28;20184;-55
2024/01/01 05:11:17;;;;;;;24.13;11.07;;;7.30;1.00;;;;;;5023516;28;20178;-55
2024/01/01 05:13:43;;;;;;;20.53;9.60;;;7.50;1.00;;;;;;5020251;28;20230;-55
2024/01/01 05:16:10;;;;;;;22.07;10.67;;;7.50;1.00;;;;;;5018299;28;20188;-55
2024/01/01 05:18:35;;;;;;;23.30;10.17;;;7.50;1.00;;;;;;5016692;28;20195;-55
2024/01/01 05:21:01;;;;;;;19.13;9.27;;;7.60;1.00;;;;;;5019986;28;20945;-54
2024/01/01 05:23:27;;;;;;;20.80;10.03;;;7.60;1.00;;;;;;5021488;28;20692;-55
2024/01/01 05:25:52;;;;;;;16.83;9.33;;;7.60;1.00;;;;;;5018506;28;20329;-55
2024/01/01 05:28:18;;;;;;;16.33;9.13;;;7.60;1.00;;;;;;5018989;28;20199;-54
2024/01/01 05:30:43;;;;;;;20.63;9.03;;;7.60;1.00;;;;;;5014977;28;20184;-55
2024/01/01 05:33:09;;;;;;;14.33;8.63;;;7.60;1.00;;;;;;5015166;28;20222;-54
2024/01/01 05:35:36;;;;;;;15.70;8.10;;;7.70;1.00;;;;;;5020632;28;20271;-55
2024/01/01 05:38:02;;;;;;;12.83;7.87;;;7.60;1.00;;;;;;5022450;28;20203;-55
2024/01/01 05:40:28;;;;;;;17.83;7.87;;;7.60;1.00;;;;;;5017658;28;20441;-55
2024/01/01 05:42:53;;;;;;;16.30;8.77;;;7.70;1.00;;;;;;5020057;28;20443;-55
2024/01/01 05:45:19;;;;;;;14.43;6.53;;;7.70;1.00;;;;;;5020906;28;20274;-55
2024/01/01 05:47:45;;;;;;;16.33;8.77;;;7.60;1.00;;;;;;5020980;28;20180;-55
2024/01/01 05:50:10;;;;;;;16.83;8.33;;;7.70;1.00;;;;;;5014162;28;20271;-55
2024/01/01 05:52:36;;;;;;;18.50;9.83;;;7.60;1.00;;;;;;5014766;28;20180;-54
2024/01/01 05:55:01;;;;;;;16.93;8.90;;;7.70;1.00;;;;;;5020466;28;20199;-55
2024/01/01 05:57:27;;;;;;;17.50;8.47;;;7.70;1.00;;;;;;5014187;28;20198;-56
2024/01/01 05:59:52;;;;;;;28.37;9.80;;;7.80;1.00;;;;;;5016476;28;20267;-55
2024/01/01 06:02:18;;;;;;;14.10;8.27;;;7.80;1.00;;;;;;5022964;28;21199;-54
2024/01/01 06:04:43;;;;;;;10.87;6.50;;;7.80;1.00;;;;;;5024005;28;20179;-55
2024/01/01 06:07:09;;;;;;;14.17;8.97;;;7.80;1.00;;;;;;5019154;28;20239;-54
2024/01/01 06:09:35;;;;;;;16.97;8.10;;;7.70;1.00;;;;;;5023231;28;20273;-54
2024/01/01 06:12:01;;;;;;;17.83;8.00;;;7.70;1.00;;;;;;5021488;28;20245;-54
2024/01/01 06:14:27;;;;;;;20.70;8.77;;;7.70;1.00;;;;;;5021201;28;20220;-54
2024/01/01 06:16:52;;;;;;;16.87;8.30;;;7.70;1.00;;;;;;5027870;28;20861;-54
2024/01/01 06:19:18;;;;;;;19.20;8.17;;;7.70;1.00;;;;;;5024346;28;20184;-54
2024/01/01 06:21:43;;;;;;;14.50;7.50;;;7.70;1.00;;;;;;5021534;28;20187;-54
2024/01/01 06:24:09;;;;;;;18.93;7.33;;;7.70;1.00;;;;;;5021985;28;20184;-54
2024/01/01 06:26:34;;;;;;;15.23;7.13;;;7.70;1.00;;;;;;5022740;28;20218;-54
2024/01/01 06:29:00;;;;;;;15.40;6.67;;;7.80;1.00;;;;;;5019846;28;20246;-54
2024/01/01 06:31:26;;;;;;;20.63;6.40;;;7.80;1.00;;;;;;5017845;28;20191;-53
2024/01/01 06:33:51;;;;;;;8.83;5.80;;;7.80;1.00;;;;;;5017614;28;20671;-53
2024/01/01 06:36:17;;;;;;;21.43;6.77;;;7.80;1.00;;;;;;5018557;28;20644;-54
2024/01/01 06:38:43;;;;;;;14.53;6.60;;;7.60;1.00;;;;;;5017867;28;20537;-53
2024/01/01 06:41:08;;;;;;;14.47;6.53;;;7.60;1.00;;;;;;5020541;28;20446;-53
2024/01/01 06:43:34;;;;;;;13.37;5.80;;;7.60;1.00;;;;;;5016342;28;20184;-54
2024/01/01 06:45:59;;;;;;;12.90;6.20;;;7.60;1.00;;;;;;5020244;28;20279;-54
2024/01/01 06:48:25;;;;;;;14.97;5.87;;;7.50;1.00;;;;;;5026257;28;20180;-54
2024/01/01 06:50:51;;;;;;;17.10;5.40;;;7.50;1.00;;;;;;5024588;28;20184;-53
2024/01/01 06:53:16;;;;;;;12.70;5.60;;;7.50;1.00;;;;;;5025591;28;20732;-53
2024/01/01 06:55:42;;;;;;;12.90;5.83;;;7.50;1.00;;;;;;5024091;28;20192;-53
2024/01/01 06:58:07;;;;;;;11.57;5.47;;;7.40;1.00;;;;;;5026155;28;20191;-54
2024/01/01 07:00:33;;;;;;;13.83;4.93;;;7.40;1.00;;;;;;5021423;28;20321;-53
2024/01/01 07:02:59;;;;;;;11.80;4.90;;;7.40;1.00;;;;;;5020345;28;20557;-53
2024/01/01 07:05:26;;;;;;;12.80;5.90;;;7.40;1.00;;;;;;5020144;28;20300;-53
2024/01/01 07:07:51;;;;;;;13.40;5.87;;;7.40;1.00;;;;;;5019789;28;20700;-53
2024/01/01 07:10:17;;;;;;;13.07;5.10;;;7.40;1.00;;;;;;5018194;28;20728;-53
2024/01/01 07:12:43;;;;;;;11.90;4.97;;;7.40;1.00;;;;;;5015189;28;20250;-53
2024/01/01 07:15:08;;;;;;;13.73;4.87;;;7.40;1.00;;;;;;5018281;28;20676;-53
2024/01/01 07:17:34;;;;;;;9.10;4.67;;;7.40;1.00;;;;;;5022737;28;20195;-53
2024/01/01 07:20:00;;;;;;;11.60;5.47;;;7.40;1.00;;;;;;5022811;28;20187;-53
2024/01/01 07:22:26;;;;;;;11.87;5.20;;;7.40;1.00;;;;;;5018875;28;20305;-53
2024/01/01 07:24:51;;;;;;;11.10;4.93;;;7.40;1.00;;;;;;5021977;28;20969;-53
2024/01/01 07:27:17;;;;;;;11.40;5.17;;;7.30;1.00;;;;;;5019401;28;20188;-53
2024/01/01 07:29:43;;;;;;;10.80;4.83;;;7.30;1.00;;;;;;5023135;28;20190;-53
2024/01/01 07:32:08;;;;;;;14.80;4.97;;;7.40;1.00;;;;;;5024022;28;20322;-53
2024/01/01 07:34:35;;;;;;;12.33;4.63;;;7.30;1.00;;;;;;5023804;28;20309;-53
2024/01/01 07:37:01;;;;;;;11.73;5.53;;;7.30;1.00;;;;;;5025047;28;20196;-53
2024/01/01 07:39:29;;;;;;;11.50;4.93;;;7.40;1.00;;;;;;5021803;28;20437;-53
2024/01/01 07:41:55;;;;;;;8.70;4.97;;;7.40;1.00;;;;;;5018366;28;20198;-53
2024/01/01 07:44:21;;;;;;;9.10;4.40;;;7.40;1.00;;;;;;5015975;28;20430;-53
2024/01/01 07:46:49;;;;;;;11.17;4.30;;;7.40;1.00;;;;;;5018572;28;20522;-53
2024/01/01 07:49:15;;;;;;;14.77;5.43;;;7.40;1.00;;;;;;5018175;28;20191;-53
2024/01/01 07:51:41;;;;;;;14.23;5.10;;;7.40;1.00;;;;;;5015292;28;20431;-53
2024/01/01 07:54:06;;;;;;;14.23;4.60;;;7.40;1.00;;;;;;5018750;28;21020;-53
2024/01/01 07:56:32;;;;;;;9.13;3.43;;;7.50;1.00;;;;;;5020123;28;20608;-53
2024/01/01 07:58:58;;;;;;;7.00;4.00;;;7.50;1.00;;;;;;5019091;28;20179;-53
2024/01/01 08:01:24;;;;;;;8.00;3.77;;;7.40;1.00;;;;;;5017085;28;20867;-53
2024/01/01 08:03:50;;;;;;;10.93;4.67;;;7.40;1.00;;;;;;5021336;28;20298;-52
2024/01/01 08:06:17;;;;;;;10.70;4.20;;;7.40;1.00;;;;;;5015286;28;20822;-53
2024/01/01 08:08:43;;;;;;;9.07;4.40;;;7.40;1.00;;;;;;5024302;28;20187;-53
2024/01/01 08:11:09;;;;;;;10.23;4.60;;;7.40;1.00;;;;;;5024408;28;20462;-53
2024/01/01 08:13:36;;;;;;;12.53;4.20;;;7.50;1.00;;;;;;5016481;28;20483;-53
2024/01/01 08:16:02;;;;;;;8.70;4.57;;;7.50;1.00;;;;;;5021644;28;20189;-53
2024/01/01 08:18:27;;;;;;;10.40;4.47;;;7.60;1.00;;;;;;5022531;28;20443;-53
2024/01/01 08:20:54;;;;;;;8.07;4.30;;;7.50;1.00;;;;;;5017696;28;20762;-53
2024/01/01 08:23:20;;;;;;;9.83;3.90;;;7.50;1.00;;;;;;5019691;28;20536;-53
2024/01/01 08:25:46;;;;;;;7.63;3.80;;;7.60;1.00;;;;;;5019871;28;20191;-53
2024/01/01 08:28:11;;;;;;;10.83;4.50;;;7.50;1.00;;;;;;5019530;28;20210;-52
2024/01/01 08:30:38;;;;;;;8.53;4.00;;;7.60;1.00;;;;;;5015094;28;20187;-53
2024/01/01 08:33:04;;;;;;;11.53;4.50;;;7.60;1.00;;;;;;5016618;28;20228;-53
2024/01/01 08:35:31;;;;;;;13.00;4.57;;;7.60;1.00;;;;;;5018699;28;20434;-53
2024/01/01 08:37:57;;;;;;;13.07;4.80;;;7.60;1.00;;;;;;5019349;28;20449;-53
2024/01/01 08:40:22;;;;;;;13.33;4.60;;;7.60;1.00;;;;;;5015325;28;21158;-53
2024/01/01 08:42:50;;;;;;;8.47;4.03;;;7.60;1.00;;;;;;5026901;28;20670;-53
2024/01/01 08:45:19;;;;;;;8.10;3.63;;;7.60;1.00;;;;;;5015728;28;20290;-53
2024/01/01 08:47:48;;;;;;;11.17;3.87;;;7.60;1.00;;;;;;5018242;28;20478;-53
2024/01/01 08:50:14;;;;;;;16.70;4.57;;;7.60;20.50;;;;;;5015268;28;20457;-53
2024/01/01 08:52:40;;;;;;;10.57;3.80;;;7.50;51.60;;;;;;5023419;28;20969;-53
2024/01/01 08:55:06;;;;;;;14.10;4.87;;;7.50;99.90;;;;;;5024841;28;20448;-53
2024/01/01 08:57:31;;;;;;;8.87;3.77;;;7.50;99.90;;;;;;5020202;28;20435;-53
2024/01/01 08:59:57;;;;;;;11.60;4.40;;;7.40;99.90;;;;;;5022095;28;20191;-53
2024/01/01 09:02:22;;;;;;;7.90;4.40;;;7.40;99.90;;;;;;5020888;28;20223;-53
2024/01/01 09:04:48;;;;;;;14.87;4.93;;;7.40;1.00;;;;;;5020174;28;20648;-53
2024/01/01 09:07:13;;;;;;;10.57;4.27;;;7.30;1.00;;;;;;5013240;28;20236;-53
2024/01/01 09:09:40;;;;;;;11.37;4.77;;;7.20;36.40;;;;;;5014089;28;20640;-53
2024/01/01 09:12:06;;;;;;;10.83;4.80;;;7.20;99.90;;;;;;5021704;28;20188;-53
2024/01/01 09:14:32;;;;;;;13.83;4.87;;;7.00;99.90;;;;;;5020357;28;20478;-53
2024/01/01 09:16:58;;;;;;;13.10;4.23;;;7.10;35.60;;;;;;5019523;28;20787;-53
2024/01/01 09:19:23;;;;;;;13.87;4.67;;;7.10;99.90;;;;;;5019139;28;20192;-53
2024/01/01 09:21:49;;;;;;;12.47;4.50;;;7.00;1.00;;;;;;5019767;28;20822;-53
2024/01/01 09:24:15;;;;;;;13.50;5.70;;;7.00;99.90;;;;;;5018345;28;20640;-53
2024/01/01 09:26:40;;;;;;;11.70;5.03;;;6.90;1.00;;;;;;5011677;28;20184;-53
2024/01/01 09:29:06;;;;;;;13.53;5.03;;;7.00;99.90;;;;;;5022341;28;20780;-54
2024/01/01 09:31:32;;;;;;;10.60;4.03;;;7.00;1.00;;;;;;5018339;28;20187;-54
2024/01/01 09:34:00;;;;;;;12.60;4.90;;;6.90;99.90;;;;;;5026566;28;20233;-54
2024/01/01 09:36:29;;;;;;;12.43;4.77;;;6.90;1.00;;;;;;5027789;28;22266;-54
2024/01/01 09:38:54;;;;;;;9.13;4.27;;;6.90;1.00;;;;;;5026010;28;20448;-54
2024/01/01 09:41:23;;;;;;;15.33;5.20;;;6.90;99.90;;;;;;5021581;28;20438;-51
2024/01/01 09:43:49;;;;;;;10.57;4.00;;;7.10;1.00;;;;;;5024335;28;20206;-53
2024/01/01 09:46:17;;;;;;;13.50;5.77;;;7.10;99.90;;;;;;5027027;28;20434;-53
2024/01/01 09:48:42;;;;;;;15.60;4.10;;;7.20;99.90;;;;;;5026695;28;20593;-53
2024/01/01 09:51:08;;;;;;;0.50;0.40;;;7.20;99.90;;;;;;5021375;28;20525;-53
2024/01/01 09:53:34;;;;;;;16.20;3.93;;;7.20;99.90;;;;;;5025854;28;20225;-53
2024/01/01 09:55:59;;;;;;;16.07;4.20;;;7.20;1.00;;;;;;5019059;28;20200;-54
2024/01/01 09:58:25;;;;;;;10.60;4.00;;;7.10;48.70;;;;;;5017255;28;20520;-53
2024/01/01 10:00:50;;;;;;;10.40;3.47;;;7.10;1.00;;;;;;5017716;28;20188;-52
2024/01/01 10:03:16;;;;;;;12.57;4.53;;;7.10;1.00;;;;;;5022189;28;20195;-53
2024/01/01 10:05:41;;;;;;;13.80;3.73;;;7.10;1.00;;;;;;5022477;28;20189;-53
2024/01/01 10:08:09;;;;;;;14.80;4.83;;;7.10;1.00;;;;;;5030240;28;20234;-53
2024/01/01 10:10:39;;;;;;;14.97;4.90;;;7.10;93.30;;;;;;5017962;28;20660;-53
2024/01/01 10:13:15;;;;;;;12.53;3.87;;;7.20;99.90;;;;;;5026772;28;20568;-53
2024/01/01 10:15:42;;;;;;;8.57;3.80;;;7.20;18.50;;;;;;5026140;28;20946;-53
2024/01/01 10:18:09;;;;;;;10.03;3.57;;;7.20;1.00;;;;;;5019569;28;20458;-53
2024/01/01 10:20:34;;;;;;;17.83;3.80;;;7.20;1.00;;;;;;5026974;28;20451;-53
2024/01/01 10:23:00;;;;;;;16.60;4.47;;;7.20;99.90;;;;;;5025846;28;20453;-53
2024/01/01 10:25:25;;;;;;;12.43;3.83;;;7.20;1.00;;;;;;5023149;28;20271;-53
2024/01/01 10:27:56;;;;;;;16.83;4.23;;;7.30;43.80;;;;;;5022356;28;20191;-53
2024/01/01 10:30:22;;;;;;;6.30;3.57;;;7.30;1.00;;;;;;5024082;28;20191;-53
2024/01/01 10:32:48;;;;;;;12.03;3.90;;;7.30;99.90;;;;;;5020839;28;20528;-53
2024/01/01 10:35:15;;;;;;;12.33;3.57;;;7.30;99.90;;;;;;5018604;28;20598;-53
2024/01/01 10:37:42;;;;;;;9.00;3.60;;;7.30;1.00;;;;;;5015975;28;20450;-53
2024/01/01 10:40:10;;;;;;;10.90;3.97;;;7.40;99.90;;;;;;5025062;28;20430;-54
2024/01/01 10:42:35;;;;;;;15.17;3.70;;;7.50;75.20;;;;;;5021617;28;20840;-54
2024/01/01 10:45:05;;;;;;;15.60;4.03;;;7.50;1.00;;;;;;5024901;28;20467;-53
2024/01/01 10:47:31;;;;;;;18.13;3.50;;;7.50;1.00;;;;;;5019787;28;20195;-54
2024/01/01 10:50:24;;;;;;;5.60;1.00;;;7.60;99.90;;;;;;5016505;28;20445;-55
2024/01/01 10:52:56;;;;;;;9.23;3.13;;;7.70;1.00;;;;;;5016998;28;20509;-53
2024/01/01 10:55:40;;;;;;;14.10;3.80;;;7.70;99.90;;;;;;5022019;28;20483;-53
2024/01/01 10:58:51;;;;;;;12.43;3.97;;;7.70;99.90;;;;;;5023438;28;20943;-53
2024/01/01 11:01:19;;;;;;;11.47;4.40;;;7.70;99.90;;;;;;5024507;28;20480;-53
2024/01/01 11:03:48;;;;;;;12.67;3.83;;;7.70;99.90;;;;;;5022387;28;20829;-53
2024/01/01 11:06:33;;;;;;;13.17;3.80;;;7.60;55.70;;;;;;5023572;28;20481;-53
2024/01/01 11:09:19;;;;;;;9.30;2.93;;;7.60;99.90;;;;;;5033141;28;20511;-53
2024/01/01 11:11:53;;;;;;;14.83;3.50;;;7.70;99.90;;;;;;5027381;28;20952;-53
2024/01/01 11:14:28;;;;;;;8.53;3.30;;;7.70;99.90;;;;;;5021266;28;20549;-53
2024/01/01 11:16:55;;;;;;;11.43;3.30;;;7.80;1.00;;;;;;5020220;28;20449;-53
2024/01/01 11:19:42;;;;;;;11.17;4.00;;;7.80;1.00;;;;;;5015569;28;20925;-53
2024/01/01 11:22:20;;;;;;;15.97;4.87;;;7.80;1.00;;;;;;5017802;28;20907;-54
2024/01/01 11:24:47;;;;;;;12.97;3.60;;;7.80;1.00;;;;;;5016818;28;20443;-53
2024/01/01 11:27:32;;;;;;;23.93;4.13;;;7.80;1.00;;;;;;5024501;28;20441;-53
2024/01/01 11:30:05;;;;;;;11.67;3.30;;;7.80;1.00;;;;;;5023200;28;20918;-52
2024/01/01 11:32:32;;;;;;;9.90;2.90;;;7.80;1.00;;;;;;5020962;28;20480;-53
2024/01/01 11:35:06;;;;;;;12.60;3.40;;;7.90;99.90;;;;;;5023859;28;20942;-52
2024/01/01 11:37:33;;;;;;;14.70;3.67;;;7.90;99.90;;;;;;5026965;28;20444;-53
2024/01/01 11:40:02;;;;;;;11.00;3.00;;;7.90;99.90;;;;;;5024883;28;20485;-54
2024/01/01 11:42:28;;;;;;;9.93;3.50;;;7.90;99.90;;;;;;5015944;28;20517;-53
2024/01/01 11:45:09;;;;;;;10.83;3.20;;;7.90;68.40;;;;;;5020761;28;20434;-53
2024/01/01 11:47:36;;;;;;;11.80;3.97;;;7.90;34.40;;;;;;5024016;28;20541;-52
2024/01/01 11:50:02;;;;;;;16.37;3.90;;;8.00;23.30;;;;;;5019891;28;20442;-53
2024/01/01 11:52:28;;;;;;;10.50;2.70;;;8.00;1.00;;;;;;5017481;28;20437;-53
2024/01/01 11:54:53;;;;;;;7.30;3.43;;;8.00;1.00;;;;;;5018719;28;20485;-53
2024/01/01 11:57:19;;;;;;;11.77;3.20;;;8.00;1.00;;;;;;5020431;28;20948;-53
2024/01/01 11:59:45;;;;;;;8.30;3.00;;;8.00;1.00;;;;;;5017831;28;20191;-53
2024/01/01 12:02:11;;;;;;;15.40;4.03;;;8.10;1.00;;;;;;5020085;28;20172;-53
2024/01/01 12:04:39;;;;;;;11.43;3.20;;;8.10;1.00;;;;;;5022014;28;20566;-53
2024/01/01 12:07:05;;;;;;;9.90;2.93;;;8.00;1.00;;;;;;5019194;28;20520;-54
2024/01/01 12:09:30;;;;;;;10.40;3.23;;;8.00;1.00;;;;;;5018143;28;20470;-53
2024/01/01 12:12:07;;;;;;;11.00;3.77;;;7.90;1.00;;;;;;5024355;28;20566;-53
2024/01/01 12:14:32;;;;;;;15.73;4.00;;;7.90;1.00;;;;;;5020284;28;20297;-54
2024/01/01 12:16:58;;;;;;;9.93;3.70;;;7.90;1.00;;;;;;5018478;28;20540;-53
2024/01/01 12:19:25;;;;;;;11.03;3.53;;;7.90;30.70;;;;;;5021209;28;20211;-54
2024/01/01 12:21:53;;;;;;;13.40;3.93;;;7.90;71.80;;;;;;5021863;28;20549;-52
2024/01/01 12:24:20;;;;;;;7.83;4.13;;;7.90;99.90;;;;;;5026206;28;20525;-56
2024/01/01 12:26:51;;;;;;;8.27;3.37;;;7.90;17.60;;;;;;5019811;28;20450;-54
2024/01/01 12:29:21;;;;;;;7.20;2.80;;;8.00;1.00;;;;;;5018992;28;20538;-53
2024/01/01 12:31:49;;;;;;;7.33;2.80;;;8.00;9.60;;;;;;5025606;28;20460;-56
2024/01/01 12:34:19;;;;;;;10.60;3.60;;;8.00;1.00;;;;;;5021334;28;20533;-55
2024/01/01 12:36:47;;;;;;;11.80;5.63;;;8.00;1.00;;;;;;5024829;28;20796;-55
2024/01/01 12:39:16;;;;;;;9.73;3.67;;;8.10;1.00;;;;;;5021231;28;20450;-54
2024/01/01 12:41:42;;;;;;;8.10;3.07;;;8.10;1.00;;;;;;5016539;28;20478;-53
2024/01/01 12:44:08;;;;;;;6.47;2.20;;;8.10;1.00;;;;;;5020836;28;21394;-53
2024/01/01 12:46:33;;;;;;;14.77;2.77;;;8.10;1.00;;;;;;5014538;28;20200;-54